Clutton, United Kingdom
Current Conditions -  °F | °C
As of 3:50 PM on Sunday 25 Jan 2015 (Local Time) from EGGD Reporting Station
Broken Clouds Broken Clouds  
Wind Chill: 38°   Ceiling: 3000
Heat Index: 45°   Visibility: 6mi
Dew Point: 41°   Wind: 14mph
Humidity: 87%   Direction: 220°SW
Pressure: 30.36"   Gusts: NA
Location:  51.33°N, 2.54°W
Report Text: EGGD 251550Z 22012KT 9999 SCT007 SCT015 BKN030 07/05 Q1028
Loading
Personal Weather Stations






























Interactive Weather Map New forecast layout! Learn more

10-Day Weather Forecast

Advertisements
Track Severe Weather on mobile